Zeybe — TCMG4 — position and weather

sailwx.info

Track history (hours):
 
Tides and Currents Weather Stations Pressure Air Temp Water Temp Dewpoint Dewpoint Depression Visibility Wind Speed Wind Dir Waves Ship Positions

Zeybe

Last reported at 2018-Jun-22 13:30 UTC. Time now 2018-Jun-24 05:19 UTC.
Position N 36°49' E 023°33'.

Length 70 m; draft 5.2 m.

Type: Cargo ship. MMSI: 271042650.

Date/timePositionNaut miles runAvg speedWind from/ knotsBaromVisibWave heightAir tempDewpointWater temp
2018-Jun-22 13:30N 36°49' E 023°33'4 7.2
2018-Jun-22 13:00N 36°52' E 023°35'4 7.4
2018-Jun-22 12:30N 36°55' E 023°37'4 7.4
2018-Jun-22 12:00N 36°58' E 023°40'4 7.5
2018-Jun-22 11:29N 37°02' E 023°42'4 7.3
2018-Jun-22 11:00N 37°05' E 023°44'  
2018-Jun-14 20:13N 40°27' E 028°27'2 7.5
2018-Jun-14 20:00N 40°27' E 028°25'4 7.7
2018-Jun-14 19:28N 40°28' E 028°20'913.8
2018-Jun-14 18:51N 40°30' E 028°09'82 6.0
2018-Jun-14 05:10N 40°12' E 026°23'1 7.3
2018-Jun-14 04:59N 40°10' E 026°24'11 5.7
2018-Jun-14 03:07N 40°01' E 026°16'4 6.1
2018-Jun-14 02:27N 40°01' E 026°11'  
Track history (hours):
 
Tides and Currents Weather Stations Pressure Air Temp Water Temp Dewpoint Dewpoint Depression Visibility Wind Speed Wind Dir Waves Ship Positions

Zeybe

Last reported at 2018-Jun-22 13:30 UTC. Time now 2018-Jun-24 05:19 UTC.
Position N 36°49' E 023°33'.

Length 70 m; draft 5.2 m.

Type: Cargo ship. MMSI: 271042650.

Date/timePositionNaut miles runAvg speedWind from/ knotsBaromVisibWave heightAir tempDewpointWater temp
2018-Jun-22 13:30N 36°49' E 023°33'4 7.2
2018-Jun-22 13:00N 36°52' E 023°35'4 7.4
2018-Jun-22 12:30N 36°55' E 023°37'4 7.4
2018-Jun-22 12:00N 36°58' E 023°40'4 7.5
2018-Jun-22 11:29N 37°02' E 023°42'4 7.3
2018-Jun-22 11:00N 37°05' E 023°44'  
2018-Jun-14 20:13N 40°27' E 028°27'2 7.5
2018-Jun-14 20:00N 40°27' E 028°25'4 7.7
2018-Jun-14 19:28N 40°28' E 028°20'913.8
2018-Jun-14 18:51N 40°30' E 028°09'82 6.0
2018-Jun-14 05:10N 40°12' E 026°23'1 7.3
2018-Jun-14 04:59N 40°10' E 026°24'11 5.7
2018-Jun-14 03:07N 40°01' E 026°16'4 6.1
2018-Jun-14 02:27N 40°01' E 026°11'  

Dump ship's entire track history